SXS5YB LTCG-LTFM
Flight info
| Callsign | SXS5YB |
|---|---|
| Flight time | N/A |
| Altitude | 32000 |
| Route | TOLUN UL851 KARDE UN644 INB UW702 GUMRU UT315 NUGBA |
| Aircraft | B738/M-SDE2E3FGHIRWXY/LB1 |
Departure
| Time | 2026-04-29 14:42 |
|---|---|
| Airport | Trabzon International Airport (LTCG) |
Arrival
| Time | N/A |
|---|---|
| Airport | İstanbul Airport (LTFM) |
| Time | Latitude | Longitude | Altitude | Speed | Heading |
|---|---|---|---|---|---|
| 2026-04-29 14:16 | 40.99565 | 39.78082 | 112 ft | 0 kts | 202° |
| 2026-04-29 14:38 | 40.99563 | 39.78082 | 115 ft | 1 kts | 189° |
| 2026-04-29 14:39 | 40.99562 | 39.78093 | 114 ft | 2 kts | 82° |
| 2026-04-29 14:39 | 40.99585 | 39.78098 | 112 ft | 4 kts | 7° |
| 2026-04-29 14:39 | 40.99614 | 39.78109 | 113 ft | 4 kts | 22° |
| 2026-04-29 14:39 | 40.99642 | 39.78126 | 114 ft | 5 kts | 32° |
| 2026-04-29 14:40 | 40.99677 | 39.78149 | 107 ft | 8 kts | 18° |
| 2026-04-29 14:40 | 40.99734 | 39.78137 | 108 ft | 8 kts | 357° |
| 2026-04-29 14:40 | 40.99746 | 39.78200 | 107 ft | 8 kts | 107° |
| 2026-04-29 14:40 | 40.99724 | 39.78272 | 108 ft | 12 kts | 112° |
| 2026-04-29 14:41 | 40.99617 | 39.78622 | 104 ft | 71 kts | 113° |
| 2026-04-29 14:41 | 40.99358 | 39.79458 | 105 ft | 122 kts | 113° |
| 2026-04-29 14:41 | 40.98983 | 39.80680 | 111 ft | 162 kts | 112° |
| 2026-04-29 14:41 | 40.98542 | 39.82097 | 421 ft | 169 kts | 111° |
| 2026-04-29 14:42 | 40.98223 | 39.83622 | 862 ft | 173 kts | 98° |
| 2026-04-29 14:42 | 40.98390 | 39.85170 | 1339 ft | 174 kts | 56° |
| 2026-04-29 14:42 | 40.99007 | 39.86572 | 1785 ft | 183 kts | 71° |
| 2026-04-29 14:42 | 40.98958 | 39.88331 | 1990 ft | 204 kts | 104° |
| 2026-04-29 14:43 | 40.98880 | 39.90227 | 2251 ft | 213 kts | 68° |
| 2026-04-29 14:43 | 40.99788 | 39.91783 | 2440 ft | 225 kts | 28° |
| 2026-04-29 14:43 | 41.01289 | 39.92303 | 2915 ft | 226 kts | 6° |
| 2026-04-29 14:43 | 41.02856 | 39.92565 | 3477 ft | 235 kts | 7° |
| 2026-04-29 14:44 | 41.04507 | 39.92787 | 4219 ft | 239 kts | 355° |
| 2026-04-29 14:44 | 41.05998 | 39.92042 | 5196 ft | 230 kts | 315° |
| 2026-04-29 14:44 | 41.06816 | 39.90280 | 5997 ft | 226 kts | 288° |
| 2026-04-29 14:44 | 41.07316 | 39.88281 | 6710 ft | 232 kts | 288° |
| 2026-04-29 14:45 | 41.07838 | 39.86161 | 7030 ft | 255 kts | 288° |
| 2026-04-29 14:45 | 41.08405 | 39.83838 | 7471 ft | 271 kts | 288° |
| 2026-04-29 14:45 | 41.08989 | 39.81447 | 8206 ft | 274 kts | 288° |
| 2026-04-29 14:45 | 41.09580 | 39.79037 | 9038 ft | 275 kts | 288° |
| 2026-04-29 14:46 | 41.10178 | 39.76608 | 9696 ft | 278 kts | 288° |
| 2026-04-29 14:46 | 41.10774 | 39.74195 | 10240 ft | 277 kts | 288° |
| 2026-04-29 14:46 | 41.11396 | 39.71678 | 10405 ft | 297 kts | 288° |
| 2026-04-29 14:46 | 41.12062 | 39.68986 | 10572 ft | 317 kts | 288° |
| 2026-04-29 14:47 | 41.12771 | 39.66121 | 10723 ft | 336 kts | 288° |
| 2026-04-29 14:47 | 41.13520 | 39.63096 | 10862 ft | 354 kts | 288° |
| 2026-04-29 14:47 | 41.14305 | 39.59922 | 11098 ft | 368 kts | 288° |
| 2026-04-29 14:47 | 41.15110 | 39.56669 | 11602 ft | 373 kts | 288° |
| 2026-04-29 14:48 | 41.15921 | 39.53386 | 12265 ft | 375 kts | 287° |
| 2026-04-29 14:48 | 41.16734 | 39.50093 | 12926 ft | 377 kts | 287° |
| 2026-04-29 14:48 | 41.17555 | 39.46762 | 13536 ft | 380 kts | 287° |
| 2026-04-29 14:48 | 41.18380 | 39.43410 | 14087 ft | 384 kts | 287° |
| 2026-04-29 14:49 | 41.19210 | 39.40033 | 14638 ft | 386 kts | 287° |
| 2026-04-29 14:49 | 41.20033 | 39.36677 | 15194 ft | 388 kts | 287° |
| 2026-04-29 14:49 | 41.20868 | 39.33268 | 15739 ft | 389 kts | 287° |
| 2026-04-29 14:49 | 41.21709 | 39.29832 | 16272 ft | 392 kts | 287° |
| 2026-04-29 14:50 | 41.22551 | 39.26387 | 16784 ft | 394 kts | 287° |
| 2026-04-29 14:50 | 41.23398 | 39.22914 | 17295 ft | 396 kts | 287° |
| 2026-04-29 14:50 | 41.24251 | 39.19412 | 17798 ft | 399 kts | 287° |
| 2026-04-29 14:50 | 41.25105 | 39.15898 | 18288 ft | 401 kts | 287° |
| 2026-04-29 14:51 | 41.25963 | 39.12365 | 18774 ft | 401 kts | 287° |
| 2026-04-29 14:51 | 41.26821 | 39.08828 | 19196 ft | 403 kts | 287° |
| 2026-04-29 14:51 | 41.27683 | 39.05264 | 19572 ft | 405 kts | 286° |
| 2026-04-29 14:51 | 41.28538 | 39.01728 | 19936 ft | 408 kts | 286° |
| 2026-04-29 14:52 | 41.29417 | 38.98086 | 20313 ft | 409 kts | 286° |
| 2026-04-29 14:52 | 41.30277 | 38.94518 | 20679 ft | 411 kts | 286° |
| 2026-04-29 14:52 | 41.31149 | 38.90890 | 21026 ft | 413 kts | 286° |
| 2026-04-29 14:52 | 41.32027 | 38.87239 | 21365 ft | 415 kts | 286° |
| 2026-04-29 14:53 | 41.32907 | 38.83572 | 21708 ft | 416 kts | 286° |
| 2026-04-29 14:53 | 41.33787 | 38.79902 | 22093 ft | 417 kts | 286° |
| 2026-04-29 14:53 | 41.34798 | 38.76271 | 22418 ft | 419 kts | 291° |
| 2026-04-29 14:53 | 41.35961 | 38.72738 | 22976 ft | 415 kts | 292° |
| 2026-04-29 14:54 | 41.37154 | 38.69240 | 23364 ft | 415 kts | 292° |
| 2026-04-29 14:54 | 41.38357 | 38.65731 | 23601 ft | 418 kts | 292° |
| 2026-04-29 14:54 | 41.39563 | 38.62189 | 23828 ft | 421 kts | 292° |
| 2026-04-29 14:54 | 41.40763 | 38.58628 | 24075 ft | 422 kts | 291° |
| 2026-04-29 14:55 | 41.41956 | 38.55059 | 24363 ft | 422 kts | 291° |
| 2026-04-29 14:55 | 41.43138 | 38.51505 | 24917 ft | 413 kts | 291° |
| 2026-04-29 14:55 | 41.44279 | 38.48064 | 25794 ft | 399 kts | 291° |
| 2026-04-29 14:55 | 41.45380 | 38.44731 | 26681 ft | 385 kts | 291° |
| 2026-04-29 14:56 | 41.46444 | 38.41508 | 27421 ft | 377 kts | 292° |
| 2026-04-29 14:56 | 41.47497 | 38.38303 | 27757 ft | 379 kts | 292° |
| 2026-04-29 14:56 | 41.48546 | 38.35107 | 27952 ft | 383 kts | 292° |
| 2026-04-29 14:56 | 41.49614 | 38.31846 | 28222 ft | 385 kts | 292° |
| 2026-04-29 14:57 | 41.50689 | 38.28566 | 28545 ft | 386 kts | 292° |
| 2026-04-29 14:57 | 41.51763 | 38.25288 | 28915 ft | 386 kts | 292° |
| 2026-04-29 14:57 | 41.52836 | 38.22008 | 29234 ft | 386 kts | 292° |
| 2026-04-29 14:57 | 41.53914 | 38.18709 | 29500 ft | 388 kts | 292° |
| 2026-04-29 14:58 | 41.54997 | 38.15390 | 29740 ft | 390 kts | 292° |
| 2026-04-29 14:58 | 41.56082 | 38.12063 | 29999 ft | 392 kts | 292° |
| 2026-04-29 14:58 | 41.57172 | 38.08717 | 30258 ft | 393 kts | 292° |
| 2026-04-29 14:58 | 41.58261 | 38.05367 | 30473 ft | 394 kts | 292° |
| 2026-04-29 14:59 | 41.59354 | 38.02005 | 30714 ft | 394 kts | 292° |
| 2026-04-29 14:59 | 41.60447 | 37.98636 | 30976 ft | 394 kts | 292° |
| 2026-04-29 14:59 | 41.61536 | 37.95275 | 31223 ft | 394 kts | 292° |
| 2026-04-29 14:59 | 41.62623 | 37.91915 | 31475 ft | 394 kts | 292° |
| 2026-04-29 15:00 | 41.63709 | 37.88556 | 31727 ft | 394 kts | 292° |
| 2026-04-29 15:00 | 41.64792 | 37.85199 | 31976 ft | 393 kts | 292° |
| 2026-04-29 15:00 | 41.65875 | 37.81842 | 32177 ft | 394 kts | 292° |
| 2026-04-29 15:01 | 41.68063 | 37.75044 | 32170 ft | 402 kts | 292° |
| 2026-04-29 15:01 | 41.70413 | 37.67724 | 32185 ft | 409 kts | 292° |